This is the latest recevied weather packets stored in our database for station/object TG6YMD-19. If no packets are shown the sender has not sent any weather packets the latest 10 day(s).
| Time | Temp. | Humidity | Pressure | Rain* | Wind** | Luminosity | Snow |
|---|---|---|---|---|---|---|---|
| 1778097018 | 38.33° C | 27% | 1007 hPa | 0 mm | - | - | - |
| 1778096418 | 38.33° C | 27% | 1007 hPa | 0 mm | - | - | - |
| 1778095817 | 38.33° C | 27% | 1007 hPa | 0 mm | - | - | - |
| 1778095217 | 38.33° C | 27% | 1009 hPa | 0 mm | - | - | - |
| 1778094616 | 36.67° C | 34% | 1009 hPa | 0 mm | - | - | - |
| 1778094016 | 36.67° C | 34% | 1009 hPa | 0 mm | - | - | - |
| 1778093415 | 36.67° C | 34% | 1009 hPa | 0 mm | - | - | - |
| 1778092815 | 36.67° C | 34% | 1009 hPa | 0 mm | - | - | - |
| 1778092214 | 36.67° C | 34% | 1009 hPa | 0 mm | - | - | - |
| 1778091613 | 36.67° C | 34% | 1010 hPa | 0 mm | - | - | - |
| 1778091012 | 36.67° C | 34% | 1010 hPa | 0 mm | - | - | - |
| 1778090411 | 34.44° C | 43% | 1010 hPa | 0 mm | - | - | - |
| 1778089811 | 34.44° C | 43% | 1010 hPa | 0 mm | - | - | - |
| 1778088563 | 34.44° C | 43% | 1012 hPa | 0 mm | - | - | - |
| 1778087962 | 34.44° C | 43% | 1012 hPa | 0 mm | - | - | - |
| 1778087362 | 35° C | 47% | 1012 hPa | 0 mm | - | - | - |
| 1778086761 | 32.78° C | 49% | 1012 hPa | 0 mm | - | - | - |
| 1778086160 | 32.78° C | 49% | 1012 hPa | 0 mm | - | - | - |
| 1778085560 | 32.78° C | 49% | 1013 hPa | 0 mm | - | - | - |
| 1778084959 | 32.78° C | 49% | 1013 hPa | 0 mm | - | - | - |
| 1778084375 | 32.78° C | 49% | 1013 hPa | 0 mm | - | - | - |
| 1778083774 | 30.56° C | 55% | 1013 hPa | 0 mm | - | - | - |
| 1778083173 | 30.56° C | 55% | 1013 hPa | 0 mm | - | - | - |
| 1778082573 | 30.56° C | 55% | 1013 hPa | 0 mm | - | - | - |
| 1778081972 | 30.56° C | 55% | 1013 hPa | 0 mm | - | - | - |
* Rain latest hour (hover to see other rain measurements)
** Current wind speed in m/s (hover to see current wind gust speed)